createdAt,value
2019-01-05T00:00:09.326Z,88.95
2019-01-05T00:01:09.313Z,88.47
2019-01-05T00:02:09.326Z,88.76
2019-01-05T00:03:09.307Z,88.57
2019-01-05T00:04:09.322Z,88.71
2019-01-05T00:05:09.336Z,89.18
2019-01-05T00:06:09.385Z,88.76
2019-01-05T00:07:09.333Z,88.52
2019-01-05T00:08:09.373Z,88.85
2019-01-05T00:09:09.365Z,89.09
2019-01-05T00:10:09.336Z,89.09
2019-01-05T00:11:09.384Z,89.00
2019-01-05T00:12:09.402Z,88.71
2019-01-05T00:13:09.371Z,88.90
2019-01-05T00:14:09.368Z,88.67
2019-01-05T00:15:09.376Z,89.56
2019-01-05T00:16:09.363Z,89.42
2019-01-05T00:17:09.384Z,89.18
2019-01-05T00:18:09.394Z,88.71
2019-01-05T00:19:09.403Z,89.42
2019-01-05T00:20:09.411Z,88.90
2019-01-05T00:21:09.421Z,89.71
2019-01-05T00:22:09.425Z,89.37
2019-01-05T00:23:09.462Z,89.47
2019-01-05T00:24:09.394Z,88.67
2019-01-05T00:25:09.391Z,89.18
2019-01-05T00:26:09.405Z,88.90
2019-01-05T00:27:09.468Z,89.37
2019-01-05T00:28:09.414Z,89.18
2019-01-05T00:29:09.472Z,89.28
2019-01-05T00:30:09.422Z,89.18
2019-01-05T00:31:09.432Z,89.18
2019-01-05T00:32:09.441Z,89.37
2019-01-05T00:33:09.443Z,89.18
2019-01-05T00:34:09.562Z,89.47
2019-01-05T00:35:09.506Z,89.28
2019-01-05T00:36:09.494Z,89.18
2019-01-05T00:37:09.501Z,88.52
2019-01-05T00:38:09.516Z,88.71
2019-01-05T00:39:09.504Z,89.09
2019-01-05T00:40:09.519Z,88.61
2019-01-05T00:41:10.105Z,89.09
2019-01-05T00:42:09.483Z,89.18
2019-01-05T00:43:09.496Z,89.00
2019-01-05T00:44:09.499Z,89.75
2019-01-05T00:45:09.534Z,89.28
2019-01-05T00:46:09.533Z,89.00
2019-01-05T00:47:09.547Z,88.80
2019-01-05T00:48:09.499Z,89.18
2019-01-05T00:49:09.580Z,89.18
2019-01-05T00:50:09.585Z,89.56
2019-01-05T00:51:09.580Z,89.18
2019-01-05T00:52:09.563Z,89.75
2019-01-05T00:53:09.571Z,89.66
2019-01-05T00:54:09.984Z,89.66
2019-01-05T00:55:09.637Z,89.85
2019-01-05T00:56:10.098Z,89.37
2019-01-05T00:57:09.937Z,89.85
2019-01-05T00:58:09.551Z,90.42
2019-01-05T00:59:09.558Z,90.61
2019-01-05T01:00:09.605Z,90.04
2019-01-05T01:01:09.590Z,89.94
2019-01-05T01:02:09.567Z,89.56
2019-01-05T01:03:09.557Z,89.85
2019-01-05T01:04:09.584Z,90.04
2019-01-05T01:05:09.583Z,90.04
2019-01-05T01:06:09.661Z,89.66
2019-01-05T01:07:09.598Z,89.85
2019-01-05T01:08:09.622Z,89.85
2019-01-05T01:09:09.589Z,89.56
2019-01-05T01:10:09.581Z,89.66
2019-01-05T01:11:09.666Z,89.85
2019-01-05T01:12:09.626Z,89.47
2019-01-05T01:13:09.804Z,89.85
2019-01-05T01:14:09.617Z,89.94
2019-01-05T01:15:09.614Z,89.66
2019-01-05T01:16:09.636Z,90.14
2019-01-05T01:17:09.643Z,89.85
2019-01-05T01:18:09.652Z,89.37
2019-01-05T01:19:09.637Z,89.56
2019-01-05T01:20:09.659Z,89.66
2019-01-05T01:21:09.630Z,89.56
2019-01-05T01:22:09.668Z,89.66
2019-01-05T01:23:09.660Z,89.75
2019-01-05T01:24:09.677Z,89.56
2019-01-05T01:25:09.655Z,89.66
2019-01-05T01:26:09.665Z,89.56
2019-01-05T01:27:09.768Z,89.47
2019-01-05T01:28:09.679Z,89.37
2019-01-05T01:29:09.669Z,89.75
2019-01-05T01:30:09.677Z,89.94
2019-01-05T01:31:09.692Z,89.66
2019-01-05T01:32:09.720Z,89.66
2019-01-05T01:33:09.752Z,89.66
2019-01-05T01:34:09.760Z,89.56
2019-01-05T01:35:09.700Z,89.66
2019-01-05T01:36:09.704Z,89.56
2019-01-05T01:37:09.730Z,89.56
2019-01-05T01:38:09.773Z,89.75
2019-01-05T01:39:09.749Z,89.56
2019-01-05T01:40:09.705Z,89.85
2019-01-05T01:41:09.807Z,89.56
2019-01-05T01:42:09.729Z,90.04
2019-01-05T01:43:09.769Z,90.61
2019-01-05T01:44:09.816Z,90.04
2019-01-05T01:45:09.782Z,89.47
2019-01-05T01:46:09.803Z,89.66
2019-01-05T01:47:09.796Z,89.47
2019-01-05T01:48:09.811Z,89.56
2019-01-05T01:49:09.858Z,89.85
2019-01-05T01:50:09.803Z,89.66
2019-01-05T01:51:09.782Z,89.94
2019-01-05T01:52:09.767Z,89.75
2019-01-05T01:53:09.836Z,89.66
2019-01-05T01:54:09.882Z,89.66
2019-01-05T01:55:09.818Z,89.66
2019-01-05T01:56:09.816Z,89.66
2019-01-05T01:57:09.847Z,89.94
2019-01-05T01:58:09.794Z,89.47
2019-01-05T01:59:09.868Z,89.47
2019-01-05T02:00:09.865Z,89.66
2019-01-05T02:01:09.845Z,89.66
2019-01-05T02:02:09.859Z,90.42
2019-01-05T02:03:09.837Z,89.66
2019-01-05T02:04:09.875Z,90.33
2019-01-05T02:05:09.887Z,90.14
2019-01-05T02:06:09.829Z,90.23
2019-01-05T02:07:09.823Z,90.23
2019-01-05T02:08:09.855Z,90.14
2019-01-05T02:09:09.886Z,90.70
2019-01-05T02:10:09.960Z,90.42
2019-01-05T02:11:09.877Z,90.33
2019-01-05T02:12:09.892Z,90.14
2019-01-05T02:13:09.890Z,90.61
2019-01-05T02:14:09.905Z,90.61
2019-01-05T02:15:09.885Z,90.70
2019-01-05T02:16:09.904Z,89.66
2019-01-05T02:17:09.926Z,89.75
2019-01-05T02:18:09.892Z,89.85
2019-01-05T02:19:09.901Z,89.75
2019-01-05T02:20:09.943Z,89.85
2019-01-05T02:21:09.957Z,90.42
2019-01-05T02:22:09.979Z,90.42
2019-01-05T02:23:09.937Z,89.75
2019-01-05T02:24:10.018Z,89.89
2019-01-05T02:25:09.933Z,89.85
2019-01-05T02:26:09.992Z,89.89
2019-01-05T02:27:09.927Z,90.08
2019-01-05T02:28:09.975Z,89.85
2019-01-05T02:29:09.947Z,90.33
2019-01-05T02:30:09.932Z,90.61
2019-01-05T02:31:09.975Z,89.66
2019-01-05T02:32:10.002Z,89.47
2019-01-05T02:33:09.969Z,89.75
2019-01-05T02:34:10.003Z,89.75
2019-01-05T02:35:10.005Z,89.61
2019-01-05T02:36:09.968Z,89.85
2019-01-05T02:37:09.977Z,89.47
2019-01-05T02:38:09.980Z,89.61
2019-01-05T02:39:09.990Z,89.61
2019-01-05T02:40:10.017Z,89.61
2019-01-05T02:41:10.007Z,89.61
2019-01-05T02:42:10.000Z,89.42
2019-01-05T02:43:10.178Z,89.61
2019-01-05T02:44:10.040Z,89.70
2019-01-05T02:45:10.061Z,89.89
2019-01-05T02:46:10.020Z,89.80
2019-01-05T02:47:10.066Z,89.70
2019-01-05T02:48:10.057Z,89.61
2019-01-05T02:49:10.102Z,89.42
2019-01-05T02:50:10.055Z,89.32
2019-01-05T02:51:10.029Z,89.70
2019-01-05T02:52:10.030Z,89.99
2019-01-05T02:53:10.042Z,89.89
2019-01-05T02:54:10.046Z,89.42
2019-01-05T02:55:10.108Z,89.89
2019-01-05T02:56:10.067Z,89.99
2019-01-05T02:57:10.054Z,89.70
2019-01-05T02:58:10.121Z,90.75
2019-01-05T02:59:10.118Z,90.75
2019-01-05T03:00:10.073Z,89.89
2019-01-05T03:01:11.013Z,89.70
2019-01-05T03:02:10.079Z,89.99
2019-01-05T03:03:10.447Z,89.61
2019-01-05T03:04:10.127Z,89.80
2019-01-05T03:05:10.092Z,89.51
2019-01-05T03:06:10.104Z,89.89
2019-01-05T03:07:10.093Z,89.80
2019-01-05T03:08:10.095Z,90.47
2019-01-05T03:09:10.090Z,90.37
2019-01-05T03:10:10.154Z,90.56
2019-01-05T03:11:10.101Z,90.37
2019-01-05T03:12:10.211Z,90.84
2019-01-05T03:13:10.206Z,90.56
2019-01-05T03:14:10.120Z,90.37
2019-01-05T03:15:10.143Z,90.37
2019-01-05T03:16:10.136Z,90.56
2019-01-05T03:17:10.143Z,90.28
2019-01-05T03:18:11.023Z,90.37
2019-01-05T03:19:10.203Z,90.28
2019-01-05T03:20:10.166Z,90.75
2019-01-05T03:21:10.204Z,90.66
2019-01-05T03:22:10.187Z,90.47
2019-01-05T03:23:10.177Z,90.28
2019-01-05T03:24:10.422Z,90.28
2019-01-05T03:25:10.170Z,90.47
2019-01-05T03:26:10.224Z,90.66
2019-01-05T03:27:10.210Z,90.75
2019-01-05T03:28:10.225Z,91.51
2019-01-05T03:29:10.238Z,90.84
2019-01-05T03:30:10.218Z,91.42
2019-01-05T03:31:10.232Z,91.51
2019-01-05T03:32:11.114Z,91.22
2019-01-05T03:33:10.251Z,91.32
2019-01-05T03:34:10.277Z,91.03
2019-01-05T03:35:10.333Z,91.70
2019-01-05T03:36:10.237Z,91.61
2019-01-05T03:37:10.246Z,91.89
2019-01-05T03:38:10.234Z,92.27
2019-01-05T03:39:10.333Z,92.41
2019-01-05T03:40:10.302Z,91.99
2019-01-05T03:41:10.306Z,92.84
2019-01-05T03:42:10.253Z,92.27
2019-01-05T03:43:10.543Z,92.56
2019-01-05T03:44:10.292Z,92.51
2019-01-05T03:45:10.276Z,92.75
2019-01-05T03:46:10.292Z,92.70
2019-01-05T03:47:10.272Z,93.27
2019-01-05T03:48:10.286Z,93.18
2019-01-05T03:49:10.304Z,93.27
2019-01-05T03:50:10.483Z,93.37
2019-01-05T03:51:10.299Z,93.55
2019-01-05T03:52:10.304Z,93.37
2019-01-05T03:53:10.467Z,93.94
2019-01-05T03:54:10.325Z,94.22
2019-01-05T03:55:10.345Z,93.55
2019-01-05T03:56:10.305Z,93.37
2019-01-05T03:57:10.321Z,93.65
2019-01-05T03:58:10.358Z,93.84
2019-01-05T03:59:10.398Z,93.46
2019-01-05T04:00:10.342Z,93.65
2019-01-05T04:01:10.417Z,94.03
2019-01-05T04:02:10.733Z,94.22
2019-01-05T04:03:10.450Z,94.13
2019-01-05T04:04:10.408Z,94.70
2019-01-05T04:05:10.349Z,94.22
2019-01-05T04:06:10.367Z,93.75
2019-01-05T04:07:10.381Z,93.84
2019-01-05T04:08:10.601Z,93.37
2019-01-05T04:09:10.473Z,93.37
2019-01-05T04:10:10.372Z,93.65
2019-01-05T04:11:10.379Z,93.55
2019-01-05T04:12:10.419Z,93.55
2019-01-05T04:13:10.474Z,93.75
2019-01-05T04:14:10.453Z,94.03
2019-01-05T04:15:10.542Z,94.03
2019-01-05T04:16:10.423Z,93.94
2019-01-05T04:17:10.604Z,93.84
2019-01-05T04:18:10.526Z,93.75
2019-01-05T04:19:10.649Z,94.03
2019-01-05T04:20:10.471Z,94.32
2019-01-05T04:21:10.466Z,93.65
2019-01-05T04:22:10.496Z,94.70
2019-01-05T04:23:10.436Z,93.65
2019-01-05T04:24:10.440Z,94.03
2019-01-05T04:25:10.425Z,94.13
2019-01-05T04:26:10.513Z,94.03
2019-01-05T04:27:10.457Z,93.98
2019-01-05T04:28:10.441Z,93.94
2019-01-05T04:29:10.444Z,94.27
2019-01-05T04:30:10.461Z,94.22
2019-01-05T04:31:10.471Z,93.89
2019-01-05T04:32:10.480Z,93.84
2019-01-05T04:33:10.516Z,93.79
2019-01-05T04:34:10.504Z,94.08
2019-01-05T04:35:10.509Z,94.13
2019-01-05T04:36:10.494Z,93.94
2019-01-05T04:37:10.507Z,93.65
2019-01-05T04:38:10.492Z,94.27
2019-01-05T04:39:10.498Z,94.32
2019-01-05T04:40:10.515Z,94.08
2019-01-05T04:41:10.540Z,93.79
2019-01-05T04:42:10.549Z,93.94
2019-01-05T04:43:10.554Z,93.94
2019-01-05T04:44:10.538Z,93.94
2019-01-05T04:45:10.578Z,94.22
2019-01-05T04:46:10.531Z,94.03
2019-01-05T04:47:10.576Z,94.37
2019-01-05T04:48:10.688Z,94.18
2019-01-05T04:49:10.546Z,94.37
2019-01-05T04:50:10.580Z,93.98
2019-01-05T04:51:10.608Z,94.27
2019-01-05T04:52:10.598Z,94.18
2019-01-05T04:53:10.609Z,94.08
2019-01-05T04:54:10.632Z,93.98
2019-01-05T04:55:10.615Z,94.08
2019-01-05T04:56:10.579Z,94.08
2019-01-05T04:57:10.659Z,93.89
2019-01-05T04:58:10.611Z,93.60
2019-01-05T04:59:10.703Z,93.70
2019-01-05T05:00:10.613Z,93.41
2019-01-05T05:01:10.631Z,93.60
2019-01-05T05:02:10.691Z,93.60
2019-01-05T05:03:10.597Z,93.60
2019-01-05T05:04:10.624Z,93.79
2019-01-05T05:05:10.664Z,93.70
2019-01-05T05:06:10.677Z,93.60
2019-01-05T05:07:10.636Z,93.60
2019-01-05T05:08:10.660Z,93.41
2019-01-05T05:09:10.672Z,93.41
2019-01-05T05:10:11.089Z,93.60
2019-01-05T05:11:10.656Z,93.60
2019-01-05T05:12:10.717Z,93.41
2019-01-05T05:13:10.738Z,93.70
2019-01-05T05:14:10.702Z,93.32
2019-01-05T05:15:10.659Z,93.70
2019-01-05T05:16:10.700Z,93.41
2019-01-05T05:17:10.725Z,93.32
2019-01-05T05:18:10.696Z,94.08
2019-01-05T05:19:10.707Z,93.98
2019-01-05T05:20:10.690Z,93.89
2019-01-05T05:21:10.747Z,93.98
2019-01-05T05:22:10.747Z,93.98
2019-01-05T05:23:10.685Z,94.18
2019-01-05T05:24:10.779Z,94.56
2019-01-05T05:25:10.733Z,94.65
2019-01-05T05:26:10.949Z,93.79
2019-01-05T05:27:10.791Z,94.18
2019-01-05T05:28:10.768Z,93.98
2019-01-05T05:29:10.755Z,94.18
2019-01-05T05:30:10.782Z,93.89
2019-01-05T05:31:10.740Z,93.98
2019-01-05T05:32:10.791Z,93.98
2019-01-05T05:33:10.733Z,94.08
2019-01-05T05:34:10.803Z,94.27
2019-01-05T05:35:10.762Z,94.08
2019-01-05T05:36:10.789Z,93.89
2019-01-05T05:37:10.794Z,93.89
2019-01-05T05:38:10.876Z,94.08
2019-01-05T05:39:10.799Z,94.18
2019-01-05T05:40:10.781Z,93.98
2019-01-05T05:41:10.808Z,93.98
2019-01-05T05:42:10.800Z,94.56
2019-01-05T05:43:10.817Z,94.56
2019-01-05T05:44:10.892Z,94.74
2019-01-05T05:45:10.821Z,94.18
2019-01-05T05:46:10.783Z,94.18
2019-01-05T05:47:10.810Z,94.18
2019-01-05T05:48:10.842Z,94.18
2019-01-05T05:49:10.959Z,94.65
2019-01-05T05:50:10.806Z,94.27
2019-01-05T05:51:10.860Z,94.37
2019-01-05T05:52:10.816Z,94.56
2019-01-05T05:53:10.834Z,94.65
2019-01-05T05:54:10.915Z,94.46
2019-01-05T05:55:10.849Z,94.18
2019-01-05T05:56:10.907Z,94.37
2019-01-05T05:57:10.849Z,94.65
2019-01-05T05:58:10.868Z,93.70
2019-01-05T05:59:10.876Z,93.98
2019-01-05T06:00:10.875Z,94.74
2019-01-05T06:01:10.877Z,94.46
2019-01-05T06:02:11.035Z,94.56
2019-01-05T06:03:10.886Z,93.79
2019-01-05T06:04:10.898Z,94.27
2019-01-05T06:05:10.952Z,93.89
2019-01-05T06:06:10.950Z,94.08
2019-01-05T06:07:10.899Z,93.89
2019-01-05T06:08:10.959Z,94.18
2019-01-05T06:09:10.946Z,94.27
2019-01-05T06:10:10.965Z,93.89
2019-01-05T06:11:10.941Z,93.60
2019-01-05T06:12:10.978Z,93.70
2019-01-05T06:13:10.951Z,93.60
2019-01-05T06:14:11.000Z,93.32
2019-01-05T06:15:10.971Z,93.32
2019-01-05T06:16:11.050Z,93.41
2019-01-05T06:17:10.940Z,93.41
2019-01-05T06:18:11.038Z,93.41
2019-01-05T06:19:10.936Z,93.51
2019-01-05T06:20:10.987Z,93.51
2019-01-05T06:21:10.958Z,93.23
2019-01-05T06:22:11.008Z,93.41
2019-01-05T06:23:10.996Z,93.98
2019-01-05T06:24:11.004Z,93.60
2019-01-05T06:25:11.081Z,93.60
2019-01-05T06:26:10.983Z,93.51
2019-01-05T06:27:11.050Z,93.32
2019-01-05T06:28:10.988Z,93.70
2019-01-05T06:29:11.547Z,92.75
2019-01-05T06:30:11.040Z,92.84
2019-01-05T06:31:11.026Z,92.75
2019-01-05T06:32:11.016Z,93.23
2019-01-05T06:33:11.045Z,92.84
2019-01-05T06:34:11.086Z,92.84
2019-01-05T06:35:11.050Z,93.13
2019-01-05T06:36:11.086Z,93.13
2019-01-05T06:37:11.049Z,93.04
2019-01-05T06:38:11.049Z,92.75
2019-01-05T06:39:11.031Z,93.04
2019-01-05T06:40:11.070Z,93.23
2019-01-05T06:41:11.078Z,93.13
2019-01-05T06:42:11.075Z,92.94
2019-01-05T06:43:11.053Z,92.75
2019-01-05T06:44:11.059Z,92.65
2019-01-05T06:45:11.135Z,92.56
2019-01-05T06:46:11.119Z,92.65
2019-01-05T06:47:11.087Z,92.36
2019-01-05T06:48:11.091Z,92.84
2019-01-05T06:49:11.375Z,92.56
2019-01-05T06:50:11.138Z,92.56
2019-01-05T06:51:11.150Z,92.84
2019-01-05T06:52:11.169Z,92.84
2019-01-05T06:53:11.115Z,93.23
2019-01-05T06:54:11.151Z,93.13
2019-01-05T06:55:11.109Z,93.23
2019-01-05T06:56:11.125Z,93.13
2019-01-05T06:57:11.142Z,92.94
2019-01-05T06:58:11.146Z,92.94
2019-01-05T06:59:11.139Z,93.04
2019-01-05T07:00:11.135Z,93.04
2019-01-05T07:01:11.160Z,93.32
2019-01-05T07:02:11.161Z,93.23
2019-01-05T07:03:11.128Z,93.13
2019-01-05T07:04:11.132Z,92.84
2019-01-05T07:05:11.249Z,93.04
2019-01-05T07:06:11.145Z,93.04
2019-01-05T07:07:11.187Z,93.13
2019-01-05T07:08:11.159Z,93.23
2019-01-05T07:09:11.171Z,92.84
2019-01-05T07:10:11.173Z,92.84
2019-01-05T07:11:12.447Z,93.32
2019-01-05T07:12:11.370Z,92.84
2019-01-05T07:13:11.195Z,92.84
2019-01-05T07:14:11.347Z,92.84
2019-01-05T07:15:11.346Z,92.84
2019-01-05T07:16:11.407Z,93.13
2019-01-05T07:17:11.367Z,93.13
2019-01-05T07:18:11.216Z,93.41
2019-01-05T07:19:11.213Z,92.84
2019-01-05T07:20:11.213Z,92.36
2019-01-05T07:21:11.211Z,92.27
2019-01-05T07:22:11.245Z,92.65
2019-01-05T07:23:11.236Z,92.56
2019-01-05T07:24:11.233Z,92.56
2019-01-05T07:25:11.245Z,92.84
2019-01-05T07:26:11.244Z,92.56
2019-01-05T07:27:11.270Z,92.65
2019-01-05T07:28:11.245Z,92.75
2019-01-05T07:29:11.304Z,92.36
2019-01-05T07:30:11.260Z,92.46
2019-01-05T07:31:11.278Z,92.65
2019-01-05T07:32:11.329Z,92.18
2019-01-05T07:33:11.307Z,92.08
2019-01-05T07:34:11.303Z,91.99
2019-01-05T07:35:11.284Z,91.89
2019-01-05T07:36:11.300Z,92.18
2019-01-05T07:37:11.354Z,91.42
2019-01-05T07:38:11.318Z,91.89
2019-01-05T07:39:11.307Z,91.80
2019-01-05T07:40:11.342Z,92.27
2019-01-05T07:41:11.326Z,91.80
2019-01-05T07:42:11.363Z,92.18
2019-01-05T07:43:11.394Z,91.70
2019-01-05T07:44:11.341Z,91.70
2019-01-05T07:45:11.343Z,91.80
2019-01-05T07:46:11.336Z,92.08
2019-01-05T07:47:11.461Z,91.22
2019-01-05T07:48:11.346Z,91.61
2019-01-05T07:49:11.345Z,91.22
2019-01-05T07:50:11.382Z,91.32
2019-01-05T07:51:11.410Z,91.51
2019-01-05T07:52:11.363Z,91.51
2019-01-05T07:53:11.389Z,91.80
2019-01-05T07:54:11.388Z,91.32
2019-01-05T07:55:11.523Z,91.22
2019-01-05T07:56:11.394Z,91.22
2019-01-05T07:57:11.409Z,91.42
2019-01-05T07:58:11.443Z,90.84
2019-01-05T07:59:11.409Z,91.42
2019-01-05T08:00:11.400Z,91.42
2019-01-05T08:01:11.461Z,90.75
2019-01-05T08:02:11.424Z,90.75
2019-01-05T08:03:11.437Z,90.66
2019-01-05T08:04:11.483Z,90.84
2019-01-05T08:05:11.439Z,91.42
2019-01-05T08:06:11.474Z,90.84
2019-01-05T08:07:11.491Z,90.56
2019-01-05T08:08:11.484Z,90.94
2019-01-05T08:09:11.469Z,90.47
2019-01-05T08:10:11.477Z,90.18
2019-01-05T08:11:11.447Z,90.28
2019-01-05T08:12:11.498Z,90.47
2019-01-05T08:13:11.473Z,90.66
2019-01-05T08:14:11.498Z,89.89
2019-01-05T08:15:11.515Z,90.08
2019-01-05T08:16:11.470Z,89.61
2019-01-05T08:17:11.485Z,89.99
2019-01-05T08:18:11.486Z,89.99
2019-01-05T08:19:11.525Z,89.70
2019-01-05T08:20:11.509Z,89.61
2019-01-05T08:21:11.510Z,89.80
2019-01-05T08:22:11.533Z,89.23
2019-01-05T08:23:11.517Z,88.99
2019-01-05T08:24:11.517Z,89.37
2019-01-05T08:25:11.627Z,88.94
2019-01-05T08:26:11.527Z,89.47
2019-01-05T08:27:11.534Z,89.04
2019-01-05T08:28:11.540Z,89.18
2019-01-05T08:29:11.559Z,89.27
2019-01-05T08:30:11.539Z,88.99
2019-01-05T08:31:11.586Z,89.37
2019-01-05T08:32:11.564Z,88.70
2019-01-05T08:33:11.554Z,88.23
2019-01-05T08:34:11.617Z,88.04
2019-01-05T08:35:11.607Z,88.04
2019-01-05T08:36:11.714Z,88.32
2019-01-05T08:37:11.585Z,87.94
2019-01-05T08:38:11.597Z,87.27
2019-01-05T08:39:11.587Z,87.51
2019-01-05T08:40:11.654Z,86.90
2019-01-05T08:41:11.600Z,86.94
2019-01-05T08:42:11.608Z,86.94
2019-01-05T08:43:11.613Z,86.55
2019-01-05T08:44:11.609Z,86.18
2019-01-05T08:45:11.634Z,85.89
2019-01-05T08:46:11.646Z,85.60
2019-01-05T08:47:12.052Z,85.22
2019-01-05T08:48:11.653Z,85.22
2019-01-05T08:49:11.640Z,84.56
2019-01-05T08:50:11.999Z,85.13
2019-01-05T08:51:11.696Z,85.03
2019-01-05T08:52:11.666Z,85.22
2019-01-05T08:53:11.663Z,85.18
2019-01-05T08:54:11.718Z,84.89
2019-01-05T08:55:11.685Z,85.66
2019-01-05T08:56:11.690Z,85.32
2019-01-05T08:57:11.721Z,85.56
2019-01-05T08:58:11.689Z,85.80
2019-01-05T08:59:11.730Z,85.51
2019-01-05T09:00:11.785Z,85.18
2019-01-05T09:01:11.756Z,85.47
2019-01-05T09:02:11.742Z,85.66
2019-01-05T09:03:11.744Z,85.41
2019-01-05T09:04:11.711Z,84.99
2019-01-05T09:05:11.763Z,84.80
2019-01-05T09:06:11.768Z,85.37
2019-01-05T09:07:11.735Z,85.08
2019-01-05T09:08:11.753Z,85.66
2019-01-05T09:09:11.756Z,85.56
2019-01-05T09:10:11.753Z,85.56
2019-01-05T09:11:11.748Z,85.56
2019-01-05T09:12:11.850Z,85.85
2019-01-05T09:13:11.789Z,85.37
2019-01-05T09:14:11.817Z,85.28
2019-01-05T09:15:11.892Z,85.66
2019-01-05T09:16:11.844Z,85.66
2019-01-05T09:17:11.805Z,85.08
2019-01-05T09:18:11.818Z,85.28
2019-01-05T09:19:11.859Z,85.56
2019-01-05T09:20:11.816Z,85.56
2019-01-05T09:21:11.828Z,84.89
2019-01-05T09:22:11.813Z,84.52
2019-01-05T09:23:11.805Z,84.61
2019-01-05T09:24:11.851Z,85.28
2019-01-05T09:25:11.838Z,84.61
2019-01-05T09:26:11.962Z,84.61
2019-01-05T09:27:11.900Z,84.70
2019-01-05T09:28:11.868Z,84.52
2019-01-05T09:29:11.857Z,84.52
2019-01-05T09:30:11.918Z,84.46
2019-01-05T09:31:11.856Z,84.33
2019-01-05T09:32:11.939Z,84.17
2019-01-05T09:33:11.961Z,83.94
2019-01-05T09:34:11.897Z,83.85
2019-01-05T09:35:11.860Z,84.13
2019-01-05T09:36:11.877Z,84.61
2019-01-05T09:37:11.912Z,83.56
2019-01-05T09:38:11.909Z,84.80
2019-01-05T09:39:11.889Z,84.61
2019-01-05T09:40:11.914Z,84.52
2019-01-05T09:41:11.952Z,84.52
2019-01-05T09:42:11.906Z,84.33
2019-01-05T09:43:11.947Z,84.52
2019-01-05T09:44:11.921Z,84.61
2019-01-05T09:45:11.916Z,84.52
2019-01-05T09:46:11.946Z,84.61
2019-01-05T09:47:11.984Z,84.42
2019-01-05T09:48:11.990Z,84.33
2019-01-05T09:49:11.950Z,84.23
2019-01-05T09:50:11.940Z,84.33
2019-01-05T09:51:11.950Z,84.33
2019-01-05T09:52:11.945Z,84.70
2019-01-05T09:53:11.957Z,84.61
2019-01-05T09:54:11.987Z,84.52
2019-01-05T09:55:11.965Z,84.52
2019-01-05T09:56:11.986Z,84.61
2019-01-05T09:57:11.981Z,84.52
2019-01-05T09:58:12.000Z,84.33
2019-01-05T09:59:11.981Z,84.13
2019-01-05T10:00:12.005Z,83.75
2019-01-05T10:01:12.015Z,83.65
2019-01-05T10:02:11.999Z,83.37
2019-01-05T10:03:12.012Z,83.22
2019-01-05T10:04:12.014Z,83.28
2019-01-05T10:05:12.102Z,82.75
2019-01-05T10:06:12.019Z,82.90
2019-01-05T10:07:12.031Z,83.03
2019-01-05T10:08:12.035Z,82.65
2019-01-05T10:09:12.041Z,81.89
2019-01-05T10:10:12.079Z,82.14
2019-01-05T10:11:12.194Z,81.95
2019-01-05T10:12:12.092Z,82.14
2019-01-05T10:13:12.051Z,82.27
2019-01-05T10:14:12.114Z,81.98
2019-01-05T10:15:12.149Z,81.60
2019-01-05T10:16:12.086Z,82.27
2019-01-05T10:17:12.107Z,82.18
2019-01-05T10:18:12.077Z,81.89
2019-01-05T10:19:12.108Z,81.85
2019-01-05T10:20:12.119Z,81.98
2019-01-05T10:21:12.309Z,82.14
2019-01-05T10:22:12.144Z,81.98
2019-01-05T10:23:12.142Z,82.27
2019-01-05T10:24:12.122Z,81.89
2019-01-05T10:25:12.233Z,82.08
2019-01-05T10:26:12.154Z,81.98
2019-01-05T10:27:12.133Z,82.08
2019-01-05T10:28:12.579Z,81.79
2019-01-05T10:29:12.157Z,82.18
2019-01-05T10:30:12.144Z,81.41
2019-01-05T10:31:12.153Z,81.41
2019-01-05T10:32:12.157Z,81.41
2019-01-05T10:33:12.232Z,81.41
2019-01-05T10:34:12.249Z,81.41
2019-01-05T10:35:12.168Z,80.84
2019-01-05T10:36:12.186Z,80.65
2019-01-05T10:37:12.190Z,80.84
2019-01-05T10:38:12.293Z,81.51
2019-01-05T10:39:12.195Z,81.23
2019-01-05T10:40:13.058Z,81.51
2019-01-05T10:41:12.210Z,81.23
2019-01-05T10:42:12.208Z,80.84
2019-01-05T10:43:12.224Z,80.36
2019-01-05T10:44:12.276Z,81.07
2019-01-05T10:45:12.229Z,80.41
2019-01-05T10:46:12.253Z,80.12
2019-01-05T10:47:12.308Z,79.74
2019-01-05T10:48:12.272Z,79.93
2019-01-05T10:49:12.240Z,79.64
2019-01-05T10:50:12.243Z,79.83
2019-01-05T10:51:12.287Z,78.88
2019-01-05T10:52:12.337Z,78.65
2019-01-05T10:53:12.305Z,79.22
2019-01-05T10:54:12.315Z,79.17
2019-01-05T10:55:12.279Z,78.94
2019-01-05T10:56:12.349Z,78.88
2019-01-05T10:57:12.309Z,79.60
2019-01-05T10:58:12.323Z,79.80
2019-01-05T10:59:12.297Z,78.65
2019-01-05T11:00:12.306Z,79.89
2019-01-05T11:01:12.340Z,79.70
2019-01-05T11:02:12.413Z,79.60
2019-01-05T11:03:12.335Z,78.75
2019-01-05T11:04:12.343Z,78.94
2019-01-05T11:05:12.360Z,79.32
2019-01-05T11:06:12.344Z,79.03
2019-01-05T11:07:12.369Z,78.85
2019-01-05T11:08:12.422Z,79.80
2019-01-05T11:09:12.453Z,79.70
2019-01-05T11:10:12.399Z,78.85
2019-01-05T11:11:12.384Z,78.65
2019-01-05T11:12:12.381Z,79.51
2019-01-05T11:13:12.409Z,79.22
2019-01-05T11:14:12.468Z,79.32
2019-01-05T11:15:12.374Z,79.13
2019-01-05T11:16:12.527Z,78.75
2019-01-05T11:17:12.450Z,78.65
2019-01-05T11:18:12.413Z,78.94
2019-01-05T11:19:12.466Z,79.13
2019-01-05T11:20:12.448Z,79.13
2019-01-05T11:21:12.454Z,79.51
2019-01-05T11:22:12.443Z,79.32
2019-01-05T11:23:12.477Z,79.41
2019-01-05T11:24:12.691Z,79.32
2019-01-05T11:25:12.492Z,79.22
2019-01-05T11:26:12.477Z,78.88
2019-01-05T11:27:12.450Z,78.94
2019-01-05T11:28:12.471Z,79.51
2019-01-05T11:29:12.514Z,78.94
2019-01-05T11:30:12.490Z,79.07
2019-01-05T11:31:12.469Z,79.03
2019-01-05T11:32:12.468Z,78.94
2019-01-05T11:33:12.518Z,78.98
2019-01-05T11:34:12.514Z,79.07
2019-01-05T11:35:12.536Z,78.50
2019-01-05T11:36:12.572Z,78.78
2019-01-05T11:37:12.519Z,78.50
2019-01-05T11:38:12.525Z,77.26
2019-01-05T11:39:12.521Z,77.55
2019-01-05T11:40:12.613Z,77.74
2019-01-05T11:41:12.528Z,77.83
2019-01-05T11:42:12.528Z,78.41
2019-01-05T11:43:12.546Z,78.22
2019-01-05T11:44:12.652Z,77.74
2019-01-05T11:45:12.639Z,77.93
2019-01-05T11:46:12.550Z,78.41
2019-01-05T11:47:12.551Z,78.41
2019-01-05T11:48:12.629Z,77.83
2019-01-05T11:49:12.583Z,77.80
2019-01-05T11:50:12.846Z,78.22
2019-01-05T11:51:12.681Z,78.31
2019-01-05T11:52:12.694Z,77.83
2019-01-05T11:53:12.594Z,77.55
2019-01-05T11:54:12.615Z,77.55
2019-01-05T11:55:12.704Z,77.83
2019-01-05T11:56:12.743Z,77.61
2019-01-05T11:57:12.767Z,77.55
2019-01-05T11:58:12.671Z,77.74
2019-01-05T11:59:12.620Z,77.45
2019-01-05T12:00:12.693Z,77.55
2019-01-05T12:01:12.703Z,77.64
2019-01-05T12:02:12.659Z,77.07
2019-01-05T12:03:12.671Z,77.74
2019-01-05T14:36:29.069Z,80.57
2019-01-05T14:37:24.905Z,80.95
2019-01-05T14:38:25.713Z,80.57
2019-01-05T14:39:26.136Z,81.05
2019-01-05T14:40:25.637Z,81.43
2019-01-05T14:41:25.017Z,81.33
2019-01-05T14:42:24.926Z,81.14
2019-01-05T14:43:24.899Z,80.95
2019-01-05T14:44:25.041Z,81.33
2019-01-05T14:45:24.938Z,81.33
2019-01-05T14:46:25.019Z,81.33
2019-01-05T14:47:26.638Z,81.24
2019-01-05T14:48:26.067Z,82.09
2019-01-05T14:49:25.798Z,81.24
2019-01-05T14:50:25.022Z,81.33
2019-01-05T14:51:25.071Z,81.33
2019-01-05T14:52:25.089Z,81.62
2019-01-05T14:53:25.178Z,81.24
2019-01-05T14:54:27.730Z,81.14
2019-01-05T14:55:25.562Z,81.14
2019-01-05T14:56:26.647Z,81.14
2019-01-05T14:57:25.435Z,81.14
2019-01-05T14:58:25.377Z,81.14
2019-01-05T14:59:25.583Z,81.14
2019-01-05T15:00:25.706Z,81.43
2019-01-05T15:01:26.820Z,81.33
2019-01-05T15:02:25.859Z,81.71
2019-01-05T15:03:25.055Z,81.24
2019-01-05T15:04:26.173Z,81.43
2019-01-05T15:05:26.466Z,81.09
2019-01-05T15:06:26.028Z,80.95
2019-01-05T15:07:26.002Z,81.05
2019-01-05T15:08:25.645Z,80.71
2019-01-05T15:09:25.524Z,80.42
2019-01-05T15:10:25.137Z,80.80
2019-01-05T15:11:25.320Z,80.71
2019-01-05T15:12:25.723Z,79.85
2019-01-05T15:13:25.050Z,80.00
2019-01-05T15:14:25.090Z,79.91
2019-01-05T15:15:30.140Z,80.13
2019-01-05T15:16:26.748Z,80.04
2019-01-05T15:17:26.151Z,80.10
2019-01-05T15:18:25.151Z,79.81
2019-01-05T15:19:25.509Z,80.13
2019-01-05T15:20:25.458Z,79.94
2019-01-05T15:21:25.058Z,80.10
2019-01-05T15:22:25.434Z,80.19
2019-01-05T15:23:27.171Z,80.42
2019-01-05T15:24:25.260Z,80.47